createdAt,value
2017-08-03T00:00:15.088Z,12.18
2017-08-03T00:02:42.632Z,11.25
2017-08-03T00:05:10.524Z,12.05
2017-08-03T00:07:38.163Z,12.95
2017-08-03T00:10:05.755Z,12.60
2017-08-03T00:12:33.302Z,13.30
2017-08-03T00:15:01.033Z,12.52
2017-08-03T00:17:28.584Z,13.30
2017-08-03T00:19:56.603Z,13.40
2017-08-03T00:22:24.154Z,12.85
2017-08-03T00:24:51.697Z,13.23
2017-08-03T00:27:19.661Z,12.40
2017-08-03T00:29:47.209Z,12.57
2017-08-03T00:32:14.758Z,13.82
2017-08-03T00:34:42.511Z,12.00
2017-08-03T00:37:10.822Z,12.95
2017-08-03T00:39:38.386Z,12.55
2017-08-03T00:42:05.975Z,13.65
2017-08-03T00:44:33.526Z,12.43
2017-08-03T00:47:01.114Z,13.05
2017-08-03T00:49:28.666Z,12.77
2017-08-03T00:51:56.525Z,13.00
2017-08-03T00:54:24.069Z,13.35
2017-08-03T00:56:51.806Z,12.57
2017-08-03T00:59:21.357Z,11.20
2017-08-03T01:01:48.993Z,12.77
2017-08-03T01:04:16.690Z,12.88
2017-08-03T01:06:44.329Z,13.73
2017-08-03T01:09:11.877Z,12.65
2017-08-03T01:11:40.143Z,13.25
2017-08-03T01:14:07.689Z,13.30
2017-08-03T01:16:35.239Z,12.90
2017-08-03T01:19:03.606Z,12.57
2017-08-03T01:21:31.969Z,12.85
2017-08-03T01:23:59.522Z,12.82
2017-08-03T01:26:27.078Z,12.50
2017-08-03T01:28:54.731Z,13.02
2017-08-03T01:31:22.318Z,12.40
2017-08-03T01:33:49.869Z,11.93
2017-08-03T01:36:17.453Z,12.35
2017-08-03T01:38:45.772Z,11.82
2017-08-03T01:41:13.369Z,12.25
2017-08-03T01:43:40.917Z,11.95
2017-08-03T01:46:09.105Z,11.75
2017-08-03T01:48:36.654Z,12.07
2017-08-03T01:51:04.202Z,11.40
2017-08-03T01:53:31.784Z,11.52
2017-08-03T01:55:59.337Z,11.73
2017-08-03T01:58:27.412Z,12.82
2017-08-03T02:00:54.962Z,12.27
2017-08-03T02:03:22.512Z,11.25
2017-08-03T02:05:56.237Z,11.98
2017-08-03T02:08:23.784Z,11.00
2017-08-03T02:10:51.348Z,10.77
2017-08-03T02:13:18.945Z,10.35
2017-08-03T02:15:47.301Z,16.30
2017-08-03T02:18:14.849Z,12.18
2017-08-03T02:20:42.556Z,13.20
2017-08-03T02:23:10.109Z,13.40
2017-08-03T02:25:38.765Z,11.85
2017-08-03T02:28:06.306Z,12.57
2017-08-03T02:30:33.853Z,12.02
2017-08-03T02:33:01.430Z,11.73
2017-08-03T02:35:28.973Z,11.85
2017-08-03T02:37:57.040Z,12.57
2017-08-03T02:40:24.593Z,12.67
2017-08-03T02:42:52.182Z,11.93
2017-08-03T02:45:19.726Z,13.35
2017-08-03T02:47:47.349Z,12.18
2017-08-03T02:50:15.660Z,12.50
2017-08-03T02:52:43.207Z,12.45
2017-08-03T02:55:10.966Z,12.73
2017-08-03T02:57:38.523Z,12.15
2017-08-03T03:00:06.113Z,12.23
2017-08-03T03:05:24.613Z,12.00
2017-08-03T03:07:52.157Z,12.35
2017-08-03T03:10:20.138Z,12.82
2017-08-03T03:12:47.687Z,12.90
2017-08-03T03:15:15.273Z,12.80
2017-08-03T03:17:42.820Z,11.82
2017-08-03T03:20:10.404Z,12.02
2017-08-03T03:22:40.701Z,13.82
2017-08-03T03:25:08.247Z,13.65
2017-08-03T03:27:35.790Z,13.50
2017-08-03T03:30:03.538Z,12.70
2017-08-03T03:32:31.089Z,13.30
2017-08-03T03:34:59.449Z,12.95
2017-08-03T03:37:27.003Z,13.73
2017-08-03T03:39:54.593Z,12.50
2017-08-03T03:42:22.907Z,12.85
2017-08-03T03:44:51.924Z,12.48
2017-08-03T03:47:19.494Z,10.85
2017-08-03T03:49:47.041Z,12.55
2017-08-03T03:52:14.790Z,13.25
2017-08-03T03:54:42.377Z,12.37
2017-08-03T03:57:10.442Z,13.73
2017-08-03T03:59:37.992Z,12.15
2017-08-03T04:02:05.541Z,12.63
2017-08-03T04:04:36.921Z,12.77
2017-08-03T04:07:08.260Z,12.15
2017-08-03T04:09:35.804Z,12.35
2017-08-03T04:12:03.354Z,12.30
2017-08-03T04:14:30.945Z,12.45
2017-08-03T04:16:58.546Z,13.00
2017-08-03T04:19:26.144Z,12.52
2017-08-03T04:21:53.729Z,12.50
2017-08-03T04:24:21.397Z,10.98
2017-08-03T04:26:48.953Z,11.85
2017-08-03T04:29:17.021Z,13.02
2017-08-03T04:31:44.574Z,13.73
2017-08-03T04:34:12.126Z,12.85
2017-08-03T04:36:39.709Z,12.63
2017-08-03T04:39:07.256Z,12.43
2017-08-03T04:41:34.798Z,12.60
2017-08-03T04:44:02.459Z,12.93
2017-08-03T04:46:30.004Z,13.15
2017-08-03T04:48:57.597Z,12.88
2017-08-03T04:51:25.285Z,13.90
2017-08-03T04:53:52.833Z,12.48
2017-08-03T04:56:20.380Z,13.60
2017-08-03T04:58:47.960Z,12.50
2017-08-03T05:01:16.605Z,12.68
2017-08-03T05:03:45.220Z,13.88
2017-08-03T05:06:13.276Z,13.70
2017-08-03T05:08:40.938Z,12.93
2017-08-03T05:11:08.495Z,13.00
2017-08-03T05:13:39.562Z,12.43
2017-08-03T05:16:07.112Z,13.15
2017-08-03T05:18:35.598Z,12.43
2017-08-03T05:21:03.366Z,12.75
2017-08-03T05:23:30.954Z,12.07
2017-08-03T05:25:58.534Z,12.30
2017-08-03T05:28:26.393Z,12.43
2017-08-03T05:30:53.943Z,13.00
2017-08-03T05:33:21.502Z,13.18
2017-08-03T05:35:50.256Z,13.30
2017-08-03T05:38:17.918Z,14.32
2017-08-03T05:40:45.474Z,13.27
2017-08-03T05:43:13.064Z,13.68
2017-08-03T05:45:40.612Z,14.13
2017-08-03T05:48:08.201Z,13.35
2017-08-03T05:50:36.533Z,13.20
2017-08-03T05:53:04.189Z,14.55
2017-08-03T05:55:32.160Z,14.93
2017-08-03T05:57:59.702Z,14.20
2017-08-03T06:00:27.255Z,14.50
2017-08-03T06:02:54.897Z,15.35
2017-08-03T06:05:30.289Z,15.48
2017-08-03T06:10:51.231Z,14.05
2017-08-03T06:13:18.772Z,14.13
2017-08-03T06:15:46.321Z,14.80
2017-08-03T06:18:13.909Z,14.63
2017-08-03T06:20:41.494Z,13.23
2017-08-03T06:23:09.046Z,13.53
2017-08-03T06:25:36.681Z,14.20
2017-08-03T06:28:04.279Z,14.00
2017-08-03T06:30:31.833Z,13.05
2017-08-03T06:32:59.408Z,13.32
2017-08-03T06:35:26.953Z,13.90
2017-08-03T06:37:54.541Z,14.45
2017-08-03T06:40:22.088Z,14.00
2017-08-03T06:42:50.537Z,14.85
2017-08-03T06:45:18.092Z,14.50
2017-08-03T06:47:45.673Z,12.97
2017-08-03T06:50:13.617Z,14.17
2017-08-03T06:52:41.938Z,15.15
2017-08-03T06:55:09.501Z,13.87
2017-08-03T06:57:38.174Z,14.50
2017-08-03T07:00:05.716Z,14.03
2017-08-03T07:02:33.261Z,14.33
2017-08-03T07:05:01.545Z,14.30
2017-08-03T07:07:29.095Z,15.53
2017-08-03T07:09:56.643Z,15.33
2017-08-03T07:12:24.577Z,13.70
2017-08-03T07:14:52.112Z,14.13
2017-08-03T07:17:19.936Z,14.00
2017-08-03T07:19:47.501Z,13.83
2017-08-03T07:22:15.055Z,13.87
2017-08-03T07:24:42.795Z,14.40
2017-08-03T07:27:10.333Z,14.83
2017-08-03T07:29:37.914Z,16.03
2017-08-03T07:32:06.218Z,16.27
2017-08-03T07:34:33.804Z,15.63
2017-08-03T07:37:01.352Z,15.63
2017-08-03T07:39:29.445Z,14.60
2017-08-03T07:41:56.987Z,14.20
2017-08-03T07:44:24.525Z,13.63
2017-08-03T07:46:52.106Z,14.60
2017-08-03T07:49:20.089Z,14.17
2017-08-03T07:51:47.631Z,13.70
2017-08-03T07:54:15.181Z,13.93
2017-08-03T07:56:43.079Z,13.27
2017-08-03T07:59:10.626Z,12.47
2017-08-03T08:01:38.202Z,11.33
2017-08-03T08:04:05.740Z,10.80
2017-08-03T08:06:33.388Z,10.83
2017-08-03T08:09:00.934Z,10.70
2017-08-03T08:11:28.696Z,11.10
2017-08-03T08:14:00.262Z,10.00
2017-08-03T08:16:28.074Z,10.00
2017-08-03T08:18:55.638Z,10.63
2017-08-03T08:21:23.221Z,10.93
2017-08-03T08:23:50.806Z,11.60
2017-08-03T08:26:18.347Z,10.67
2017-08-03T08:28:47.198Z,10.60
2017-08-03T08:31:14.777Z,10.17
2017-08-03T08:33:42.317Z,10.53
2017-08-03T08:36:09.913Z,10.03
2017-08-03T08:38:37.459Z,12.00
2017-08-03T08:41:05.012Z,12.03
2017-08-03T08:43:33.189Z,11.87
2017-08-03T08:46:00.734Z,11.50
2017-08-03T08:48:28.278Z,11.30
2017-08-03T08:50:55.863Z,11.50
2017-08-03T08:53:23.444Z,11.10
2017-08-03T08:55:51.757Z,12.70
2017-08-03T08:58:19.333Z,10.60
2017-08-03T09:00:46.873Z,10.70
2017-08-03T09:03:14.976Z,10.67
2017-08-03T09:05:42.514Z,11.90
2017-08-03T09:08:10.054Z,10.43
2017-08-03T09:10:38.181Z,10.27
2017-08-03T09:13:05.717Z,10.20
2017-08-03T09:15:33.762Z,10.77
2017-08-03T09:18:05.374Z,11.17
2017-08-03T09:20:32.925Z,10.50
2017-08-03T09:23:00.460Z,11.10
2017-08-03T09:25:28.141Z,10.87
2017-08-03T09:27:55.679Z,10.90
2017-08-03T09:30:23.218Z,11.17
2017-08-03T09:32:51.092Z,11.23
2017-08-03T09:35:18.634Z,11.17
2017-08-03T09:37:46.195Z,13.53
2017-08-03T09:40:13.780Z,11.77
2017-08-03T09:42:41.322Z,11.10
2017-08-03T09:45:09.033Z,11.93
2017-08-03T09:47:36.570Z,12.33
2017-08-03T09:50:04.154Z,12.10
2017-08-03T09:52:31.720Z,11.43
2017-08-03T09:54:59.294Z,10.30
2017-08-03T09:57:26.876Z,12.10
2017-08-03T09:59:55.184Z,11.07
2017-08-03T10:02:26.721Z,10.50
2017-08-03T10:04:55.031Z,11.00
2017-08-03T10:07:22.845Z,10.30
2017-08-03T10:09:51.197Z,9.53
2017-08-03T10:12:18.857Z,10.33
2017-08-03T10:14:46.429Z,8.93
2017-08-03T10:17:13.979Z,8.93
2017-08-03T10:19:41.874Z,8.83
2017-08-03T10:22:09.418Z,10.53
2017-08-03T10:24:37.256Z,9.37
2017-08-03T10:27:04.808Z,7.87
2017-08-03T10:29:32.353Z,9.70
2017-08-03T10:31:59.923Z,7.97
2017-08-03T10:34:27.453Z,7.80
2017-08-03T10:36:55.851Z,6.97
2017-08-03T10:39:23.397Z,7.17
2017-08-03T10:41:51.737Z,7.10
2017-08-03T10:44:19.658Z,7.33
2017-08-03T10:46:47.200Z,5.77
2017-08-03T10:49:15.496Z,6.20
2017-08-03T10:51:43.122Z,5.50
2017-08-03T10:54:10.820Z,3.90
2017-08-03T10:56:38.357Z,3.73
2017-08-03T10:59:05.893Z,3.87
2017-08-03T11:01:33.543Z,2.73
2017-08-03T11:04:01.071Z,3.50
2017-08-03T11:06:29.477Z,2.70
2017-08-03T11:08:57.013Z,3.00
2017-08-03T11:11:24.545Z,3.13
2017-08-03T11:13:53.285Z,5.77
2017-08-03T11:16:20.818Z,4.70
2017-08-03T11:18:48.381Z,3.03
2017-08-03T11:21:16.152Z,5.93
2017-08-03T11:23:43.689Z,5.00
2017-08-03T11:26:11.237Z,3.83
2017-08-03T11:28:41.205Z,4.70
2017-08-03T11:31:08.742Z,4.70
2017-08-03T11:33:36.277Z,4.80
2017-08-03T11:36:04.652Z,4.30
2017-08-03T11:38:32.958Z,4.10
2017-08-03T11:41:00.505Z,4.87
2017-08-03T11:43:28.269Z,4.20
2017-08-03T11:45:55.813Z,6.30
2017-08-03T11:48:24.557Z,4.73
2017-08-03T11:50:52.085Z,3.40
2017-08-03T11:53:19.654Z,3.17
2017-08-03T11:55:47.225Z,3.23
2017-08-03T11:58:15.106Z,3.77
2017-08-03T12:00:42.640Z,3.00
2017-08-03T12:03:10.173Z,3.40
2017-08-03T12:05:37.981Z,2.90
2017-08-03T12:08:05.516Z,2.77
2017-08-03T12:10:33.100Z,5.00
2017-08-03T12:13:00.625Z,2.70
2017-08-03T12:15:29.332Z,2.90
2017-08-03T12:17:56.870Z,2.90
2017-08-03T12:20:25.169Z,4.50
2017-08-03T12:22:53.173Z,3.10
2017-08-03T12:25:20.705Z,3.10
2017-08-03T12:27:48.243Z,2.77
2017-08-03T12:30:16.771Z,3.30
2017-08-03T12:32:44.305Z,2.67
2017-08-03T12:35:12.186Z,2.80
2017-08-03T12:37:39.717Z,2.60
2017-08-03T12:40:07.297Z,3.40
2017-08-03T12:42:34.886Z,2.67
2017-08-03T12:45:07.884Z,2.67
2017-08-03T12:47:35.418Z,3.10
2017-08-03T12:50:02.952Z,4.20
2017-08-03T12:52:30.528Z,2.90
2017-08-03T12:54:58.098Z,2.60
2017-08-03T12:57:25.637Z,2.70
2017-08-03T12:59:58.556Z,2.40
2017-08-03T13:02:26.087Z,2.50
2017-08-03T13:04:53.650Z,4.00
2017-08-03T13:07:22.940Z,2.87
2017-08-03T13:09:50.845Z,2.50
2017-08-03T13:12:18.377Z,2.17
2017-08-03T13:14:45.910Z,3.70
2017-08-03T13:17:14.402Z,2.33
2017-08-03T13:19:41.942Z,2.20
2017-08-03T13:22:10.286Z,3.60
2017-08-03T13:24:37.866Z,2.10
2017-08-03T13:27:05.401Z,1.60
2017-08-03T13:29:32.951Z,2.10
2017-08-03T13:32:00.821Z,1.80
2017-08-03T13:34:28.385Z,1.60
2017-08-03T13:36:55.913Z,2.30
2017-08-03T13:39:23.627Z,1.40
2017-08-03T13:41:51.157Z,1.50
2017-08-03T13:44:19.043Z,1.63
2017-08-03T13:46:46.577Z,1.73
2017-08-03T13:49:14.118Z,1.50
2017-08-03T13:51:42.453Z,1.57
2017-08-03T13:54:09.988Z,1.67
2017-08-03T13:56:37.865Z,1.30
2017-08-03T13:59:05.410Z,1.90
2017-08-03T14:01:32.988Z,1.40
2017-08-03T14:04:00.513Z,3.67
2017-08-03T14:06:28.110Z,2.37
2017-08-03T14:08:56.310Z,1.70
2017-08-03T14:11:24.252Z,1.70
2017-08-03T14:13:54.029Z,2.20
2017-08-03T14:16:21.568Z,2.03
2017-08-03T14:18:50.088Z,1.70
2017-08-03T14:21:17.658Z,1.60
2017-08-03T14:23:45.187Z,1.87
2017-08-03T14:26:12.756Z,1.70
2017-08-03T14:28:40.292Z,3.07
2017-08-03T14:31:08.801Z,2.27
2017-08-03T14:33:36.334Z,1.63
2017-08-03T14:36:04.629Z,2.27
2017-08-03T14:38:32.338Z,1.97
2017-08-03T14:40:59.875Z,2.00
2017-08-03T14:43:27.524Z,3.33
2017-08-03T14:45:55.159Z,2.17
2017-08-03T14:48:22.694Z,1.77
2017-08-03T14:50:50.234Z,2.87
2017-08-03T14:53:17.801Z,3.33
2017-08-03T14:55:45.325Z,3.60
2017-08-03T14:58:13.221Z,2.00
2017-08-03T15:00:40.758Z,1.67
2017-08-03T15:03:08.308Z,2.50
2017-08-03T15:05:36.218Z,1.90
2017-08-03T15:08:03.749Z,2.20
2017-08-03T15:10:32.188Z,1.97
2017-08-03T15:13:00.424Z,2.20
2017-08-03T15:15:27.961Z,2.07
2017-08-03T15:17:55.490Z,2.37
2017-08-03T15:20:24.237Z,2.23
2017-08-03T15:22:51.766Z,3.13
2017-08-03T15:25:19.294Z,2.10
2017-08-03T15:27:47.933Z,2.60
2017-08-03T15:30:15.469Z,3.40
2017-08-03T15:32:43.409Z,4.53
2017-08-03T15:35:11.705Z,2.40
2017-08-03T15:37:39.239Z,2.30
2017-08-03T15:40:07.082Z,4.67
2017-08-03T15:42:34.620Z,4.30
2017-08-03T15:45:02.157Z,2.53
2017-08-03T15:47:29.966Z,2.47
2017-08-03T15:49:57.501Z,2.27
2017-08-03T15:52:25.028Z,2.80
2017-08-03T15:54:53.369Z,2.17
2017-08-03T15:57:20.904Z,3.13
2017-08-03T15:59:48.481Z,2.43
2017-08-03T16:02:16.024Z,2.07
2017-08-03T16:04:44.208Z,2.63
2017-08-03T16:07:11.744Z,3.17
2017-08-03T16:09:39.285Z,2.40
2017-08-03T16:12:07.915Z,2.70
2017-08-03T16:14:35.482Z,3.53
2017-08-03T16:17:03.009Z,4.00
2017-08-03T16:19:30.655Z,2.63
2017-08-03T16:21:58.185Z,3.10
2017-08-03T16:24:25.902Z,2.77
2017-08-03T16:26:53.437Z,4.47
2017-08-03T16:29:21.853Z,3.13
2017-08-03T16:31:49.464Z,3.77
2017-08-03T16:34:17.056Z,2.67
2017-08-03T16:36:44.584Z,4.07
2017-08-03T16:39:13.449Z,2.33
2017-08-03T16:41:40.983Z,2.93
2017-08-03T16:44:08.509Z,2.80
2017-08-03T16:46:36.539Z,2.70
2017-08-03T16:49:04.066Z,3.87
2017-08-03T16:51:31.601Z,3.47
2017-08-03T16:53:59.621Z,3.50
2017-08-03T16:56:27.153Z,4.20
2017-08-03T16:58:54.681Z,3.90
2017-08-03T17:01:26.937Z,4.63
2017-08-03T17:03:54.474Z,5.07
2017-08-03T17:06:22.344Z,6.17
2017-08-03T17:08:50.725Z,4.40
2017-08-03T17:11:18.292Z,4.57
2017-08-03T17:13:45.833Z,8.30
2017-08-03T17:16:13.593Z,5.23
2017-08-03T17:18:41.209Z,6.27
2017-08-03T17:21:08.810Z,2.87
2017-08-03T17:23:36.349Z,7.63
2017-08-03T17:26:03.932Z,3.30
2017-08-03T17:28:31.505Z,3.43
2017-08-03T17:30:59.052Z,4.20
2017-08-03T17:33:27.014Z,4.83
2017-08-03T17:35:54.554Z,2.70
2017-08-03T17:38:22.100Z,4.13
2017-08-03T17:40:50.453Z,6.07
2017-08-03T17:43:18.033Z,5.40
2017-08-03T17:45:46.448Z,5.57
2017-08-03T17:48:14.282Z,5.37
2017-08-03T17:50:41.821Z,3.20
2017-08-03T17:53:09.401Z,3.77
2017-08-03T17:55:37.708Z,3.00
2017-08-03T17:58:05.596Z,3.70
2017-08-03T18:00:33.138Z,6.73
2017-08-03T18:03:00.670Z,4.57
2017-08-03T18:05:28.841Z,6.47
2017-08-03T18:07:57.498Z,3.03
2017-08-03T18:10:25.029Z,3.47
2017-08-03T18:12:52.560Z,3.70
2017-08-03T18:15:20.569Z,4.80
2017-08-03T18:17:48.116Z,7.47
2017-08-03T18:20:15.658Z,2.67
2017-08-03T18:22:43.294Z,4.33
2017-08-03T18:25:10.833Z,4.90
2017-08-03T18:27:38.418Z,5.50
2017-08-03T18:30:05.966Z,9.60
2017-08-03T18:32:33.641Z,4.10
2017-08-03T18:35:02.256Z,2.60
2017-08-03T18:37:29.797Z,4.03
2017-08-03T18:39:57.340Z,7.00
2017-08-03T18:42:25.486Z,3.10
2017-08-03T18:44:53.024Z,3.63
2017-08-03T18:47:20.569Z,4.37
2017-08-03T18:49:48.674Z,4.63
2017-08-03T18:52:16.209Z,4.90
2017-08-03T18:54:43.749Z,4.27
2017-08-03T18:57:11.320Z,3.90
2017-08-03T18:59:39.220Z,4.30
2017-08-03T19:02:06.756Z,3.93
2017-08-03T19:04:34.295Z,3.10
2017-08-03T19:07:02.041Z,3.50
2017-08-03T19:09:29.647Z,4.10
2017-08-03T19:11:57.182Z,3.50
2017-08-03T19:14:25.293Z,2.97
2017-08-03T19:16:52.829Z,3.30
2017-08-03T19:19:20.366Z,4.67
2017-08-03T19:21:47.950Z,4.13
2017-08-03T19:24:15.866Z,3.17
2017-08-03T19:26:43.401Z,2.07
2017-08-03T19:29:10.943Z,4.80
2017-08-03T19:31:38.634Z,2.33
2017-08-03T19:34:06.170Z,4.17
2017-08-03T19:36:33.889Z,4.97
2017-08-03T19:39:01.449Z,3.30
2017-08-03T19:41:29.802Z,6.03
2017-08-03T19:43:57.338Z,7.90
2017-08-03T19:46:25.041Z,4.00
2017-08-03T19:48:52.581Z,3.43
2017-08-03T19:51:20.120Z,5.50
2017-08-03T19:53:47.842Z,4.43
2017-08-03T19:56:15.381Z,5.60
2017-08-03T19:58:43.190Z,6.17
2017-08-03T20:01:10.773Z,3.27
2017-08-03T20:03:38.314Z,3.37
2017-08-03T20:06:05.893Z,2.20
2017-08-03T20:08:39.479Z,3.40
2017-08-03T20:11:15.065Z,4.37
2017-08-03T20:13:42.597Z,4.00
2017-08-03T20:16:10.477Z,5.77
2017-08-03T20:18:38.013Z,6.33
2017-08-03T20:21:05.547Z,4.97
2017-08-03T20:23:33.129Z,10.97
2017-08-03T20:26:01.959Z,4.13
2017-08-03T20:28:29.494Z,3.87
2017-08-03T20:31:02.188Z,8.57
2017-08-03T20:33:29.725Z,5.17
2017-08-03T20:35:57.929Z,2.87
2017-08-03T20:38:25.460Z,4.70
2017-08-03T20:40:52.998Z,5.17
2017-08-03T20:43:20.573Z,3.20
2017-08-03T20:45:48.160Z,4.83
2017-08-03T20:48:15.710Z,2.67
2017-08-03T20:50:43.462Z,2.50
2017-08-03T20:53:11.009Z,3.70
2017-08-03T20:55:38.662Z,6.30
2017-08-03T20:58:06.372Z,4.13
2017-08-03T21:00:33.962Z,3.10
2017-08-03T21:03:01.917Z,5.70
2017-08-03T21:05:29.457Z,5.20
2017-08-03T21:07:56.998Z,4.50
2017-08-03T21:10:24.710Z,3.77
2017-08-03T21:12:52.240Z,5.70
2017-08-03T21:15:20.122Z,4.90
2017-08-03T21:17:47.666Z,5.17
2017-08-03T21:20:16.347Z,6.83
2017-08-03T21:22:43.921Z,4.63
2017-08-03T21:25:11.453Z,3.97
2017-08-03T21:27:39.172Z,6.10
2017-08-03T21:30:06.709Z,5.20
2017-08-03T21:32:34.280Z,3.00
2017-08-03T21:35:01.824Z,5.17
2017-08-03T21:37:30.114Z,5.80
2017-08-03T21:39:57.657Z,6.27
2017-08-03T21:42:25.197Z,3.25
2017-08-03T21:44:53.209Z,6.00
2017-08-03T21:47:20.747Z,6.87
2017-08-03T21:49:48.285Z,3.60
2017-08-03T21:52:15.868Z,3.37
2017-08-03T21:54:43.402Z,5.27
2017-08-03T21:57:10.941Z,3.60
2017-08-03T21:59:39.346Z,3.80
2017-08-03T22:02:06.913Z,3.78
2017-08-03T22:04:34.580Z,3.37
2017-08-03T22:07:02.265Z,4.87
2017-08-03T22:09:29.846Z,2.50
2017-08-03T22:11:57.421Z,6.82
2017-08-03T22:14:24.958Z,5.82
2017-08-03T22:16:52.541Z,6.47
2017-08-03T22:19:20.989Z,5.72
2017-08-03T22:21:48.529Z,7.40
2017-08-03T22:24:16.078Z,3.97
2017-08-03T22:26:43.737Z,4.05
2017-08-03T22:29:11.318Z,7.12
2017-08-03T22:31:38.863Z,4.65
2017-08-03T22:34:06.445Z,5.00
2017-08-03T22:36:33.983Z,4.78
2017-08-03T22:39:01.874Z,7.65
2017-08-03T22:41:29.404Z,3.70
2017-08-03T22:43:56.945Z,3.20
2017-08-03T22:46:24.603Z,4.47
2017-08-03T22:48:52.948Z,5.15
2017-08-03T22:51:20.493Z,6.53
2017-08-03T22:53:48.072Z,4.60
2017-08-03T22:56:15.614Z,7.93
2017-08-03T22:58:43.197Z,8.00
2017-08-03T23:01:10.748Z,6.70
2017-08-03T23:03:38.713Z,6.87
2017-08-03T23:06:06.949Z,4.35
2017-08-03T23:08:39.774Z,4.95
2017-08-03T23:11:07.336Z,4.62
2017-08-03T23:13:34.877Z,4.85
2017-08-03T23:16:02.455Z,6.30
2017-08-03T23:18:35.134Z,5.28
2017-08-03T23:21:02.674Z,6.22
2017-08-03T23:23:30.253Z,5.50
2017-08-03T23:25:57.794Z,3.42
2017-08-03T23:28:26.137Z,6.43
2017-08-03T23:30:53.686Z,6.03
2017-08-03T23:33:26.638Z,5.85
2017-08-03T23:35:54.172Z,5.45
2017-08-03T23:38:21.718Z,6.00
2017-08-03T23:40:49.575Z,6.05
2017-08-03T23:43:17.121Z,4.85
2017-08-03T23:45:45.430Z,6.97
2017-08-03T23:48:13.842Z,5.20
2017-08-03T23:50:41.382Z,5.62
2017-08-03T23:53:08.916Z,5.00
2017-08-03T23:55:36.496Z,6.28
2017-08-03T23:58:04.085Z,5.75
